Time;durP1;ratioP1;P1;durP2;ratioP2;P2;SDS_P1;SDS_P2;PMS_P1;PMS_P2;Temp;Humidity;BMP_temperature;BMP_pressure;BME280_temperature;BME280_humidity;BME280_pressure;Samples;Min_cycle;Max_cycle;Signal;HPM_P1;HPM_P2
2022/07/02 00:00:37;;;;;;;17.80;9.80;;;;;;;23.17;75.73;94889.16;4970307;28;20215;-84
2022/07/02 00:03:15;;;;;;;16.63;10.27;;;;;;;23.22;75.70;94888.28;4969083;28;20204;-84
2022/07/02 00:06:01;;;;;;;13.18;8.50;;;;;;;23.18;74.05;94878.25;4970405;28;20263;-84
2022/07/02 00:08:30;;;;;;;16.23;9.73;;;;;;;23.13;73.36;94877.53;4973898;28;20272;-84
2022/07/02 00:11:09;;;;;;;12.63;8.50;;;;;;;23.03;73.18;94883.03;4968672;28;20610;-84
2022/07/02 00:13:56;;;;;;;14.05;8.88;;;;;;;22.85;73.09;94884.63;4971357;28;20196;-84
2022/07/02 00:16:27;;;;;;;15.43;8.73;;;;;;;22.77;74.00;94885.25;4965779;28;20816;-86
2022/07/02 00:19:07;;;;;;;15.05;8.75;;;;;;;22.83;74.70;94884.09;4968715;28;20249;-86
2022/07/02 00:21:43;;;;;;;10.82;8.63;;;;;;;22.85;74.70;94881.97;4971805;28;20255;-87
2022/07/02 00:24:26;;;;;;;17.23;8.50;;;;;;;22.78;74.79;94878.88;4966157;28;20243;-86
2022/07/02 00:27:09;;;;;;;16.52;9.70;;;;;;;22.91;77.24;94890.63;4966166;28;20232;-86
2022/07/02 00:29:55;;;;;;;13.30;9.13;;;;;;;22.89;76.96;94869.69;4958507;28;20212;-86
2022/07/02 00:32:36;;;;;;;14.52;9.10;;;;;;;23.00;77.37;94875.66;4968203;28;20205;-86
2022/07/02 00:35:18;;;;;;;13.23;9.45;;;;;;;22.96;77.01;94867.47;4970543;28;20212;-86
2022/07/02 00:37:52;;;;;;;16.80;9.63;;;;;;;22.97;77.21;94873.56;4969651;28;20216;-86
2022/07/02 00:40:28;;;;;;;13.30;9.50;;;;;;;22.86;77.01;94874.78;4965835;28;20201;-86
2022/07/02 00:43:08;;;;;;;16.00;11.38;;;;;;;22.83;78.26;94883.34;4970698;28;20215;-87
2022/07/02 00:45:46;;;;;;;18.13;11.85;;;;;;;22.85;78.73;94886.50;4964171;28;20699;-87
2022/07/02 00:48:24;;;;;;;18.85;11.65;;;;;;;22.81;79.77;94883.63;4976384;28;20224;-87
2022/07/02 00:51:00;;;;;;;21.88;11.27;;;;;;;22.81;80.90;94883.63;4969906;28;20216;-87
2022/07/02 00:53:39;;;;;;;18.65;12.18;;;;;;;22.80;81.66;94887.34;4969444;28;20192;-88
2022/07/02 00:56:07;;;;;;;18.00;11.85;;;;;;;22.80;81.71;94890.00;4969459;28;20207;-88
2022/07/02 00:58:48;;;;;;;18.02;11.77;;;;;;;22.86;82.03;94885.41;4969537;28;20220;-87
2022/07/02 01:01:28;;;;;;;21.08;12.10;;;;;;;22.82;82.36;94885.22;4968618;28;20312;-86
2022/07/02 01:04:07;;;;;;;17.48;11.82;;;;;;;22.80;82.69;94881.28;4970172;28;20219;-86
2022/07/02 01:06:49;;;;;;;20.25;12.05;;;;;;;22.73;83.30;94872.88;4969455;28;20216;-86
2022/07/02 01:12:20;;;;;;;21.10;12.38;;;;;;;22.71;83.40;94878.50;4968608;28;20348;-83
2022/07/02 01:14:58;;;;;;;17.30;12.00;;;;;;;22.68;83.39;94881.72;4964499;28;20217;-86
2022/07/02 01:17:33;;;;;;;21.33;11.63;;;;;;;22.60;83.77;94869.84;4957148;28;20215;-85
2022/07/02 01:20:09;;;;;;;17.52;12.27;;;;;;;22.58;83.83;94864.06;4963025;28;20237;-85
2022/07/02 01:22:49;;;;;;;18.13;11.27;;;;;;;22.58;83.57;94871.22;4959535;28;20295;-86
2022/07/02 01:25:33;;;;;;;17.95;11.50;;;;;;;22.52;83.63;94867.84;4971502;28;20205;-85
2022/07/02 01:28:09;;;;;;;20.15;10.90;;;;;;;22.47;83.76;94862.63;4969304;28;20264;-85
2022/07/02 01:30:49;;;;;;;18.30;12.43;;;;;;;22.45;84.25;94871.94;4971616;28;20263;-85
2022/07/02 01:33:28;;;;;;;18.77;11.68;;;;;;;22.35;84.78;94872.06;4967395;28;21030;-86
2022/07/02 01:36:10;;;;;;;19.02;12.55;;;;;;;22.33;85.80;94868.94;4969915;28;20299;-87
2022/07/02 01:38:53;;;;;;;25.88;12.60;;;;;;;22.36;85.84;94863.84;4967182;28;20284;-86
2022/07/02 01:41:49;;;;;;;20.77;12.10;;;;;;;22.38;86.29;94868.84;4963687;28;20212;-87
2022/07/02 01:44:27;;;;;;;21.85;12.38;;;;;;;22.34;86.06;94859.88;4968981;28;20240;-87
2022/07/02 01:47:02;;;;;;;27.10;13.35;;;;;;;22.35;85.47;94864.13;4959607;28;20236;-87
2022/07/02 01:49:38;;;;;;;23.13;13.18;;;;;;;22.28;86.03;94861.06;4969831;28;20655;-85
2022/07/02 01:52:11;;;;;;;17.95;12.10;;;;;;;22.26;86.35;94866.63;4959729;28;21652;-85
2022/07/02 01:54:54;;;;;;;19.15;12.50;;;;;;;22.24;86.82;94866.13;4959823;28;20297;-86
2022/07/02 01:57:35;;;;;;;19.38;11.82;;;;;;;22.25;86.84;94861.63;4971638;28;20208;-86
2022/07/02 02:00:21;;;;;;;17.20;12.02;;;;;;;22.25;87.53;94861.63;4968425;28;20252;-86
2022/07/02 02:02:58;;;;;;;20.77;13.60;;;;;;;22.26;87.52;94865.81;4970960;28;21105;-84
2022/07/02 02:05:36;;;;;;;20.85;13.13;;;;;;;22.24;87.87;94867.97;4959543;28;20205;-83
2022/07/02 02:08:15;;;;;;;20.45;13.88;;;;;;;22.22;88.29;94868.25;4970625;28;20235;-83
2022/07/02 02:10:51;;;;;;;19.08;14.40;;;;;;;22.28;87.91;94863.69;4959042;28;20562;-82
2022/07/02 02:13:33;;;;;;;25.20;15.85;;;;;;;22.24;88.30;94863.47;4970295;28;20208;-83
2022/07/02 02:16:09;;;;;;;38.30;23.92;;;;;;;22.23;88.03;94858.44;4960221;28;20201;-83
2022/07/02 02:18:48;;;;;;;37.97;21.17;;;;;;;22.20;88.09;94859.03;4966525;28;20228;-82
2022/07/02 02:21:25;;;;;;;28.98;19.27;;;;;;;22.21;88.17;94864.03;4965032;28;20208;-88
2022/07/02 02:24:05;;;;;;;34.72;22.40;;;;;;;22.22;88.21;94864.84;4969048;28;20587;-89
2022/07/02 02:26:41;;;;;;;24.48;17.30;;;;;;;22.16;86.69;94872.06;4968493;28;20205;-89
2022/07/02 02:29:20;;;;;;;17.98;13.40;;;;;;;22.08;86.49;94875.31;4968644;28;20215;-91
2022/07/02 02:31:52;;;;;;;16.10;12.10;;;;;;;22.09;85.51;94876.13;4967649;28;20215;-89
2022/07/02 02:34:21;;;;;;;19.75;12.50;;;;;;;22.06;84.70;94880.13;4963126;28;20283;-89
2022/07/02 02:36:58;;;;;;;20.08;11.93;;;;;;;22.07;85.02;94884.34;4970077;28;20209;-89
2022/07/02 02:39:33;;;;;;;15.93;11.68;;;;;;;22.03;85.33;94888.63;4958791;28;20201;-87
2022/07/02 02:42:15;;;;;;;20.02;13.15;;;;;;;22.04;86.08;94884.91;4962304;28;20235;-87
2022/07/02 02:44:55;;;;;;;15.50;11.43;;;;;;;22.04;85.71;94893.66;4958419;28;20656;-91
2022/07/02 02:47:30;;;;;;;20.02;11.43;;;;;;;22.05;85.02;94894.41;4974105;28;20232;-89
2022/07/02 02:50:07;;;;;;;14.15;11.20;;;;;;;22.01;84.85;94891.56;4969996;28;20208;-89
2022/07/02 02:52:43;;;;;;;19.70;11.77;;;;;;;22.04;84.98;94900.81;4967999;28;20257;-89
2022/07/02 02:55:17;;;;;;;20.13;13.38;;;;;;;22.03;85.26;94893.94;4968497;28;20288;-89
2022/07/02 02:57:53;;;;;;;19.67;13.85;;;;;;;21.97;85.23;94903.78;4971861;28;20212;-90
2022/07/02 03:00:28;;;;;;;26.50;15.95;;;;;;;21.98;85.14;94910.66;4967299;28;20207;-88
2022/07/02 03:03:08;;;;;;;24.63;15.02;;;;;;;21.93;85.17;94904.66;4969892;28;20299;-89
2022/07/02 03:05:49;;;;;;;26.23;16.00;;;;;;;21.88;86.09;94916.06;4960549;28;20240;-90
2022/07/02 03:08:27;;;;;;;18.40;13.25;;;;;;;21.71;86.08;94907.75;4970523;28;20264;-91
2022/07/02 03:11:01;;;;;;;20.02;13.20;;;;;;;21.75;85.41;94922.00;4965055;28;20295;-90
2022/07/02 03:13:44;;;;;;;17.77;12.30;;;;;;;21.69;85.44;94925.78;4957618;28;20656;-88
2022/07/02 03:16:23;;;;;;;16.02;12.20;;;;;;;21.64;85.88;94920.53;4969919;28;20200;-89
2022/07/02 03:19:02;;;;;;;17.48;11.80;;;;;;;21.59;86.59;94920.56;4964815;28;20197;-89
2022/07/02 03:21:38;;;;;;;17.63;13.18;;;;;;;21.61;86.51;94918.44;4970925;28;20811;-89
2022/07/02 03:24:16;;;;;;;19.58;12.55;;;;;;;21.62;86.69;94927.94;4966340;28;20212;-89
2022/07/02 03:26:55;;;;;;;19.20;12.95;;;;;;;21.67;87.06;94921.84;4965045;28;20208;-86
2022/07/02 03:29:35;;;;;;;22.65;13.32;;;;;;;21.73;88.16;94928.66;4961668;28;20216;-91
2022/07/02 03:32:10;;;;;;;23.38;12.95;;;;;;;21.75;87.88;94923.88;4979624;28;20719;-89
2022/07/02 03:34:45;;;;;;;17.17;12.63;;;;;;;21.75;87.75;94927.31;4969177;28;20670;-88
2022/07/02 03:37:23;;;;;;;21.63;13.30;;;;;;;21.73;87.37;94928.66;4971237;28;20644;-89
2022/07/02 03:39:58;;;;;;;22.20;13.65;;;;;;;21.85;87.18;94935.13;4967473;28;20262;-85
2022/07/02 03:42:35;;;;;;;16.15;12.23;;;;;;;21.86;87.37;94936.72;4967921;28;20613;-84
2022/07/02 03:45:15;;;;;;;21.45;13.57;;;;;;;21.84;87.23;94938.84;4973363;28;20259;-88
2022/07/02 03:47:48;;;;;;;19.90;12.95;;;;;;;21.83;87.22;94944.41;4970440;28;20227;-79
2022/07/02 03:50:27;;;;;;;22.92;13.05;;;;;;;21.75;87.79;94945.03;4970151;28;20212;-79
2022/07/02 03:53:03;;;;;;;21.08;13.15;;;;;;;21.61;87.98;94942.28;4973845;28;20957;-84
2022/07/02 03:55:36;;;;;;;20.13;13.50;;;;;;;21.33;89.58;94938.53;4978464;28;20304;-84
2022/07/02 03:58:09;;;;;;;24.00;14.25;;;;;;;21.24;91.11;94936.78;4976791;28;20679;-83
2022/07/02 04:00:49;;;;;;;21.27;14.23;;;;;;;21.22;92.05;94938.91;4966921;28;20197;-84
2022/07/02 04:03:27;;;;;;;18.25;13.73;;;;;;;21.07;93.51;94947.69;4973141;28;20590;-86
2022/07/02 04:05:56;;;;;;;22.70;14.88;;;;;;;21.09;93.22;94936.91;4974952;28;20237;-85
2022/07/02 04:08:26;;;;;;;25.73;14.38;;;;;;;21.08;93.06;94932.66;4977605;28;20201;-87
2022/07/02 04:10:59;;;;;;;23.45;14.35;;;;;;;21.14;92.69;94948.22;4976375;28;20204;-86
2022/07/02 04:13:33;;;;;;;22.92;14.57;;;;;;;21.21;92.42;94939.97;4972657;28;20255;-86
2022/07/02 04:16:12;;;;;;;21.05;13.82;;;;;;;21.21;93.50;94948.69;4967185;28;20208;-87
2022/07/02 04:18:50;;;;;;;22.95;14.30;;;;;;;21.30;93.29;94947.03;4967254;28;20229;-86
2022/07/02 04:21:24;;;;;;;28.42;15.02;;;;;;;21.50;92.25;94956.63;4975234;28;20228;-87
2022/07/02 04:24:01;;;;;;;22.10;13.35;;;;;;;21.65;93.00;94961.00;4974768;28;20201;-86
2022/07/02 04:26:36;;;;;;;22.40;13.77;;;;;;;21.74;92.15;94960.13;4961041;28;20216;-88
2022/07/02 04:29:05;;;;;;;21.73;14.70;;;;;;;21.82;90.21;94959.50;4974907;28;20249;-86
2022/07/02 04:31:47;;;;;;;27.30;14.95;;;;;;;21.87;88.45;94953.38;4978917;28;20579;-84
2022/07/02 04:34:21;;;;;;;26.83;14.65;;;;;;;21.88;88.76;94958.41;4973055;28;20228;-85
2022/07/02 04:36:56;;;;;;;20.52;15.13;;;;;;;21.91;88.73;94960.50;4975529;28;20208;-81
2022/07/02 04:39:26;;;;;;;24.27;14.35;;;;;;;21.97;89.12;94962.03;4969989;28;20227;-81
2022/07/02 04:41:57;;;;;;;25.90;14.90;;;;;;;22.05;88.89;94957.97;4966387;28;20271;-82
2022/07/02 04:44:32;;;;;;;23.08;14.73;;;;;;;22.06;89.28;94964.84;4974231;28;20200;-81
2022/07/02 04:47:06;;;;;;;23.80;14.95;;;;;;;22.07;89.04;94961.13;4970284;28;20615;-81
2022/07/02 04:49:39;;;;;;;21.17;14.25;;;;;;;22.11;89.38;94956.06;4977431;28;20207;-80
2022/07/02 04:52:15;;;;;;;19.83;13.60;;;;;;;22.18;89.02;94952.00;4980464;28;20196;-80
2022/07/02 04:54:53;;;;;;;16.73;13.98;;;;;;;22.21;89.00;94963.88;4978790;28;20283;-80
2022/07/02 04:57:26;;;;;;;19.25;14.23;;;;;;;22.21;88.98;94964.69;4973785;28;20247;-79
2022/07/02 05:00:01;;;;;;;21.40;14.60;;;;;;;22.31;88.83;94964.56;4972074;28;20212;-82
2022/07/02 05:02:42;;;;;;;19.90;14.75;;;;;;;22.34;87.08;94961.34;4974171;28;20200;-82
2022/07/02 05:05:11;;;;;;;19.58;15.02;;;;;;;22.35;89.00;94965.56;4974816;28;20295;-80
2022/07/02 05:07:45;;;;;;;18.83;14.73;;;;;;;22.40;89.59;94959.41;4974409;28;20201;-82
2022/07/02 05:10:23;;;;;;;19.45;13.90;;;;;;;22.48;88.12;94958.81;4971601;28;20254;-80
2022/07/02 05:12:57;;;;;;;21.05;14.52;;;;;;;22.57;87.70;94957.88;4973513;28;20209;-81
2022/07/02 05:15:37;;;;;;;17.83;13.90;;;;;;;22.65;87.28;94961.00;4972516;28;20236;-80
2022/07/02 05:18:12;;;;;;;22.98;14.88;;;;;;;22.66;87.17;94959.91;4974556;28;20340;-81
2022/07/02 05:20:52;;;;;;;20.65;13.75;;;;;;;22.68;87.45;94963.06;4975268;28;20232;-81
2022/07/02 05:23:26;;;;;;;18.52;14.27;;;;;;;22.71;88.77;94958.00;4972406;28;20204;-81
2022/07/02 05:26:00;;;;;;;23.35;15.82;;;;;;;22.74;86.73;94962.69;4976057;28;20207;-82
2022/07/02 05:28:35;;;;;;;22.52;15.05;;;;;;;22.84;85.28;94970.53;4970620;28;20275;-82
2022/07/02 05:31:11;;;;;;;20.13;14.85;;;;;;;22.79;86.06;94972.47;4970044;28;20247;-81
2022/07/02 05:33:49;;;;;;;20.80;14.98;;;;;;;22.84;86.83;94980.34;4962909;28;20200;-82
2022/07/02 05:36:26;;;;;;;22.13;15.80;;;;;;;22.88;85.97;94970.75;4975222;28;20206;-80
2022/07/02 05:39:04;;;;;;;21.10;15.15;;;;;;;22.87;86.05;94977.91;4970017;28;20704;-80
2022/07/02 05:41:42;;;;;;;22.15;15.82;;;;;;;22.87;85.30;94977.13;4970275;28;20205;-82
2022/07/02 05:44:21;;;;;;;29.10;15.55;;;;;;;22.96;84.59;94980.69;4969263;28;20201;-81
2022/07/02 05:46:59;;;;;;;19.95;14.52;;;;;;;23.05;85.01;94981.63;4958538;28;20227;-81
2022/07/02 05:49:42;;;;;;;22.02;14.75;;;;;;;23.12;84.54;94990.00;4963954;28;20212;-81
2022/07/02 05:52:30;;;;;;;20.25;15.27;;;;;;;23.29;83.91;94984.97;4961019;28;20216;-81
2022/07/02 05:55:03;;;;;;;20.50;14.88;;;;;;;23.30;84.02;94973.28;4971312;28;20204;-81
2022/07/02 05:57:39;;;;;;;21.13;14.75;;;;;;;23.28;83.01;94977.31;4963270;28;20943;-81
2022/07/02 06:00:13;;;;;;;21.23;14.27;;;;;;;23.37;83.16;94980.88;4968372;28;20311;-82
2022/07/02 06:02:50;;;;;;;27.00;15.13;;;;;;;23.36;83.32;94981.97;4968269;28;20200;-82
2022/07/02 06:08:20;;;;;;;25.15;14.75;;;;;;;23.47;82.85;94978.88;4969145;28;20227;-81
2022/07/02 06:10:51;;;;;;;25.30;14.88;;;;;;;23.63;81.57;94988.19;4963749;28;20233;-82
2022/07/02 06:13:21;;;;;;;22.17;14.13;;;;;;;23.67;80.66;94985.72;4965117;28;20727;-82
2022/07/02 06:15:53;;;;;;;19.65;13.93;;;;;;;23.76;78.93;94985.84;4961828;28;20201;-81
2022/07/02 06:18:22;;;;;;;18.35;13.63;;;;;;;23.83;78.47;94981.72;4967484;28;20244;-81
2022/07/02 06:20:56;;;;;;;16.45;13.82;;;;;;;23.89;78.66;94983.22;4966001;28;20860;-84
2022/07/02 06:23:29;;;;;;;18.33;13.82;;;;;;;23.94;79.41;94990.31;4970700;28;20199;-82
2022/07/02 06:26:02;;;;;;;18.73;13.98;;;;;;;24.03;76.65;94996.50;4971026;28;20204;-83
2022/07/02 06:28:36;;;;;;;18.27;14.10;;;;;;;24.13;75.90;94991.81;4973302;28;20284;-81
2022/07/02 06:31:11;;;;;;;21.75;14.13;;;;;;;24.17;76.35;94986.72;4970072;28;20261;-81
2022/07/02 06:33:47;;;;;;;21.00;13.05;;;;;;;24.18;76.74;94996.28;4970763;28;20211;-84
2022/07/02 06:36:28;;;;;;;25.40;13.85;;;;;;;24.19;77.95;94995.16;4969548;28;20235;-82
2022/07/02 06:39:08;;;;;;;20.92;13.70;;;;;;;24.31;76.05;94995.47;4967685;28;20240;-83
2022/07/02 06:44:31;;;;;;;19.77;13.70;;;;;;;24.33;75.96;94995.97;4969403;28;20207;-83
2022/07/02 06:47:05;;;;;;;20.33;14.57;;;;;;;24.40;76.72;94991.06;4961822;28;20236;-83
2022/07/02 06:49:45;;;;;;;17.40;13.00;;;;;;;24.43;76.11;94977.16;4957480;28;20200;-83
2022/07/02 06:52:27;;;;;;;17.25;13.20;;;;;;;24.56;74.56;94981.69;4969800;28;21685;-81
2022/07/02 06:54:59;;;;;;;17.35;13.65;;;;;;;24.64;74.42;94994.28;4970876;28;20196;-82
2022/07/02 06:57:35;;;;;;;9.90;6.38;;;;;;;24.74;66.74;94995.94;4969326;28;20213;-85
2022/07/02 07:00:10;;;;;;;16.52;10.65;;;;;;;24.98;70.54;94996.53;4969701;28;20251;-79
2022/07/02 07:02:48;;;;;;;16.88;12.65;;;;;;;25.23;70.72;94987.97;4969605;28;20222;-82
2022/07/02 07:05:27;;;;;;;22.45;12.93;;;;;;;25.69;69.26;95006.31;4971125;28;20216;-80
2022/07/02 07:08:03;;;;;;;17.55;13.25;;;;;;;25.72;68.16;95000.41;4968956;28;20236;-80
2022/07/02 07:10:39;;;;;;;17.52;13.80;;;;;;;25.80;68.31;95002.31;4967106;28;20207;-80
2022/07/02 07:13:17;;;;;;;19.50;13.27;;;;;;;25.80;68.62;95012.22;4964951;28;20200;-79
2022/07/02 07:15:53;;;;;;;15.27;12.70;;;;;;;25.84;68.40;95010.50;4959233;28;20282;-81
2022/07/02 07:18:26;;;;;;;18.08;12.65;;;;;;;25.92;66.34;95021.19;4970239;28;20200;-79
2022/07/02 07:21:04;;;;;;;14.57;10.82;;;;;;;26.02;64.15;95006.84;4976701;28;20236;-78
2022/07/02 07:23:38;;;;;;;16.38;11.85;;;;;;;26.06;64.94;95012.34;4978296;28;20278;-78
2022/07/02 07:26:29;;;;;;;20.10;12.05;;;;;;;26.18;65.39;95007.25;4970487;28;20200;-79
2022/07/02 07:29:00;;;;;;;19.00;12.77;;;;;;;26.21;64.94;95010.09;4965539;28;20209;-78
2022/07/02 07:31:40;;;;;;;16.40;11.65;;;;;;;26.28;65.03;95007.78;4970471;28;20193;-76
2022/07/02 07:34:19;;;;;;;18.05;12.05;;;;;;;26.37;64.09;95019.25;4971918;28;20207;-82
2022/07/02 07:36:48;;;;;;;19.60;11.57;;;;;;;26.44;63.46;95019.59;4977259;28;20271;-78
2022/07/02 07:39:28;;;;;;;13.18;11.40;;;;;;;26.61;63.11;95024.19;4974017;28;20222;-78
2022/07/02 07:42:02;;;;;;;19.25;12.05;;;;;;;26.78;63.41;95020.81;4970676;28;20204;-78
2022/07/02 07:44:34;;;;;;;13.50;12.00;;;;;;;26.87;61.84;95022.41;4969112;28;20212;-78
2022/07/02 07:47:09;;;;;;;17.63;12.00;;;;;;;26.81;60.88;95010.31;4967468;28;20236;-78
2022/07/02 07:49:40;;;;;;;21.75;13.38;;;;;;;26.84;61.44;95008.94;4970560;28;20674;-78
2022/07/02 07:52:11;;;;;;;17.83;13.52;;;;;;;26.86;61.57;95015.53;4972429;28;20211;-76
2022/07/02 07:54:48;;;;;;;16.58;12.60;;;;;;;26.90;61.98;95021.78;4966909;28;20204;-77
2022/07/02 07:57:25;;;;;;;18.38;12.05;;;;;;;27.02;61.50;95019.31;4969551;28;20275;-77
2022/07/02 08:00:00;;;;;;;16.30;12.23;;;;;;;26.85;61.88;95018.47;4971722;28;20270;-77
2022/07/02 08:02:39;;;;;;;15.07;11.80;;;;;;;26.79;61.86;95017.06;4972945;28;20696;-78
2022/07/02 08:05:12;;;;;;;17.23;11.80;;;;;;;26.86;62.67;95018.19;4972008;28;20200;-77
2022/07/02 08:07:48;;;;;;;15.85;11.68;;;;;;;26.92;61.94;95008.16;4974522;28;20283;-80
2022/07/02 08:10:23;;;;;;;16.20;11.38;;;;;;;27.08;62.31;95013.81;4972433;28;20207;-81
2022/07/02 08:13:00;;;;;;;14.43;11.93;;;;;;;27.16;62.05;95016.47;4970741;28;20287;-82
2022/07/02 08:15:31;;;;;;;15.88;11.73;;;;;;;27.17;61.46;95012.72;4965555;28;20212;-79
2022/07/02 08:18:06;;;;;;;18.00;13.25;;;;;;;27.28;60.64;95015.84;4973162;28;20663;-78
2022/07/02 08:20:44;;;;;;;17.70;12.02;;;;;;;27.39;60.01;95014.44;4968974;28;20232;-79
2022/07/02 08:23:19;;;;;;;18.52;12.05;;;;;;;27.50;59.82;95016.50;4964321;28;20215;-80
2022/07/02 08:25:56;;;;;;;19.17;11.93;;;;;;;27.60;59.11;95024.22;4971144;28;20291;-80
2022/07/02 08:28:36;;;;;;;14.88;12.07;;;;;;;27.69;59.08;95015.41;4972263;28;20208;-78
2022/07/02 08:31:13;;;;;;;21.40;12.00;;;;;;;27.76;58.52;95015.72;4978036;28;20235;-79
2022/07/02 08:33:43;;;;;;;18.05;11.88;;;;;;;27.85;57.37;95025.28;4980999;28;20209;-81
2022/07/02 08:36:14;;;;;;;13.88;11.48;;;;;;;28.02;56.47;95027.91;4977279;28;20671;-79
2022/07/02 08:38:50;;;;;;;13.98;12.00;;;;;;;28.15;55.94;95012.81;4979277;28;20201;-79
2022/07/02 08:41:26;;;;;;;18.10;12.30;;;;;;;28.25;54.62;95028.53;4971513;28;20199;-78
2022/07/02 08:44:00;;;;;;;19.88;11.82;;;;;;;28.31;55.39;95023.78;4966925;28;20659;-77
2022/07/02 08:46:33;;;;;;;19.40;11.95;;;;;;;28.37;56.00;95030.53;4969779;28;20231;-77
2022/07/02 08:49:11;;;;;;;13.90;12.23;;;;;;;28.45;54.65;95027.81;4971592;28;20224;-76
2022/07/02 08:51:44;;;;;;;15.23;12.43;;;;;;;28.49;55.09;95027.94;4971777;28;20646;-79
2022/07/02 08:54:20;;;;;;;17.42;12.27;;;;;;;28.57;54.78;95027.91;4972159;28;20280;-77
2022/07/02 08:56:58;;;;;;;17.65;11.82;;;;;;;28.76;53.68;95022.19;4971912;28;20427;-77
2022/07/02 08:59:36;;;;;;;16.17;12.30;;;;;;;28.90;52.23;95035.34;4979173;28;20220;-78
2022/07/02 09:02:13;;;;;;;17.58;12.05;;;;;;;28.92;51.52;95033.91;4977913;28;20207;-76
2022/07/02 09:04:48;;;;;;;18.65;11.70;;;;;;;28.98;53.15;95013.06;4976870;28;20199;-77
2022/07/02 09:07:25;;;;;;;16.80;11.80;;;;;;;29.05;53.24;95011.47;4974994;28;20312;-76
2022/07/02 09:10:07;;;;;;;15.30;10.70;;;;;;;29.29;51.97;95034.19;4971946;28;20193;-77
2022/07/02 09:12:53;;;;;;;13.70;10.77;;;;;;;29.46;49.95;95020.66;4967778;28;20240;-77
2022/07/02 09:15:35;;;;;;;19.17;10.82;;;;;;;29.65;49.22;95023.63;4970227;28;20263;-78
2022/07/02 09:18:06;;;;;;;14.80;10.45;;;;;;;29.78;49.94;95020.66;4970468;28;20660;-76
2022/07/02 09:20:46;;;;;;;17.17;10.77;;;;;;;29.87;49.38;95023.28;4968356;28;20271;-76
2022/07/02 09:23:27;;;;;;;17.98;10.43;;;;;;;30.05;48.76;95018.53;4969374;28;20197;-77
2022/07/02 09:26:06;;;;;;;17.75;10.73;;;;;;;30.15;48.79;95021.59;4969009;28;20208;-77
2022/07/02 09:29:05;;;;;;;14.75;10.15;;;;;;;30.29;47.72;95016.69;4967579;28;20644;-77
2022/07/02 09:31:53;;;;;;;10.85;9.75;;;;;;;30.28;46.39;95017.81;4964281;28;20215;-77
2022/07/02 09:34:36;;;;;;;15.35;9.73;;;;;;;30.42;46.21;95016.75;4968237;28;20272;-77
2022/07/02 09:37:24;;;;;;;14.95;9.05;;;;;;;30.53;46.62;95009.81;4964612;28;20235;-78
2022/07/02 09:40:06;;;;;;;16.45;9.43;;;;;;;30.57;46.90;95022.22;4972316;28;20213;-83
2022/07/02 09:42:49;;;;;;;13.68;9.20;;;;;;;30.64;46.58;95010.94;4970499;28;20320;-83
2022/07/02 09:45:32;;;;;;;15.88;9.27;;;;;;;30.81;46.29;95013.38;4964777;28;20303;-77
2022/07/02 09:48:13;;;;;;;12.73;9.10;;;;;;;30.85;44.29;95022.34;4963956;28;20207;-76
2022/07/02 09:50:52;;;;;;;14.77;9.07;;;;;;;30.83;42.95;95019.19;4968591;28;20234;-77
2022/07/02 09:53:29;;;;;;;10.85;8.82;;;;;;;30.47;45.48;95013.84;4969520;28;20204;-76
2022/07/02 09:56:11;;;;;;;12.07;9.35;;;;;;;30.54;44.44;95014.06;4970515;28;20283;-80
2022/07/02 09:58:51;;;;;;;15.00;10.55;;;;;;;30.41;44.73;95013.28;4969249;28;20655;-76
2022/07/02 10:01:37;;;;;;;15.18;8.65;;;;;;;30.07;44.53;95017.09;4969183;28;20227;-77
2022/07/02 10:04:17;;;;;;;11.63;7.57;;;;;;;30.29;45.58;95000.59;4970450;28;20291;-77
2022/07/02 10:06:54;;;;;;;14.27;8.38;;;;;;;30.47;45.30;95000.41;4969208;28;20259;-78
2022/07/02 10:09:33;;;;;;;14.80;9.50;;;;;;;30.45;44.44;94998.06;4968300;28;20219;-77
2022/07/02 10:12:18;;;;;;;11.63;8.80;;;;;;;30.62;45.38;94997.06;4970587;28;20267;-77
2022/07/02 10:15:00;;;;;;;9.02;7.90;;;;;;;30.48;42.69;95002.00;4969678;28;20209;-76
2022/07/02 10:17:42;;;;;;;10.27;8.07;;;;;;;30.52;43.58;94992.13;4968159;28;20315;-77
2022/07/02 10:20:16;;;;;;;10.32;8.88;;;;;;;30.42;43.15;94992.59;4967977;28;20236;-82
2022/07/02 10:22:55;;;;;;;15.05;8.77;;;;;;;30.76;43.54;94992.16;4968188;28;20205;-77
2022/07/02 10:25:39;;;;;;;12.85;9.27;;;;;;;30.90;43.60;94979.16;4968726;28;20215;-78
2022/07/02 10:28:18;;;;;;;10.05;8.88;;;;;;;31.17;44.63;94977.69;4968868;28;20204;-76
2022/07/02 10:30:57;;;;;;;13.93;9.10;;;;;;;31.52;42.92;94981.38;4970371;28;20283;-76
2022/07/02 10:33:46;;;;;;;12.68;8.35;;;;;;;31.57;40.20;94978.47;4965964;28;20288;-76
2022/07/02 10:36:27;;;;;;;11.77;8.93;;;;;;;31.40;39.53;94974.09;4965791;28;20722;-77
2022/07/02 10:39:12;;;;;;;10.93;8.13;;;;;;;31.50;42.16;94983.63;4967686;28;21012;-76
2022/07/02 10:41:44;;;;;;;12.70;8.10;;;;;;;31.86;40.79;94980.00;4963414;28;20231;-76
2022/07/02 10:44:23;;;;;;;11.93;7.38;;;;;;;32.13;41.70;94973.03;4968320;28;20204;-76
2022/07/02 10:47:00;;;;;;;9.70;8.10;;;;;;;32.50;40.34;94982.38;4968499;28;20639;-76
2022/07/02 10:49:37;;;;;;;10.35;7.63;;;;;;;32.78;40.42;94982.31;4970709;28;20216;-76
2022/07/02 10:52:16;;;;;;;10.52;7.90;;;;;;;32.83;39.71;94979.34;4969029;28;20214;-77
2022/07/02 10:54:49;;;;;;;9.05;7.65;;;;;;;32.91;39.66;94978.38;4968334;28;20196;-77
2022/07/02 10:57:29;;;;;;;13.00;7.65;;;;;;;33.14;38.72;94976.59;4968037;28;20262;-78
2022/07/02 11:00:09;;;;;;;9.50;7.30;;;;;;;33.02;37.11;94985.56;4967747;28;20251;-77
2022/07/02 11:02:49;;;;;;;9.20;7.90;;;;;;;32.31;38.42;94977.72;4969597;28;21003;-77
2022/07/02 11:05:33;;;;;;;11.00;7.57;;;;;;;32.00;40.52;94975.00;4968819;28;20212;-76
2022/07/02 11:08:10;;;;;;;13.93;8.18;;;;;;;31.80;41.44;94970.63;4961054;28;20205;-78
2022/07/02 11:10:52;;;;;;;11.30;8.20;;;;;;;31.88;41.90;94966.97;4967515;28;20215;-77
2022/07/02 11:13:40;;;;;;;13.38;9.73;;;;;;;31.89;41.72;94965.88;4967419;28;20200;-76
2022/07/02 11:16:34;;;;;;;12.88;7.90;;;;;;;32.15;39.78;94963.47;4967744;28;21031;-76
2022/07/02 11:19:19;;;;;;;15.93;8.43;;;;;;;31.71;40.25;94970.00;4967188;28;20212;-75
2022/07/02 11:22:02;;;;;;;10.20;8.15;;;;;;;31.30;39.93;94957.69;4969127;28;20209;-82
2022/07/02 11:24:43;;;;;;;13.30;8.13;;;;;;;31.41;40.70;94964.13;4969308;28;20204;-77
2022/07/02 11:27:20;;;;;;;15.05;8.18;;;;;;;31.10;40.07;94964.81;4967228;28;20223;-77
2022/07/02 11:30:03;;;;;;;10.45;7.40;;;;;;;31.20;40.54;94958.94;4966550;28;20203;-76
2022/07/02 11:32:50;;;;;;;10.55;7.85;;;;;;;31.00;39.19;94959.91;4967089;28;20310;-75
2022/07/02 11:35:28;;;;;;;13.05;7.68;;;;;;;30.72;40.85;94957.13;4961204;28;20260;-77
2022/07/02 11:38:19;;;;;;;8.82;7.63;;;;;;;30.45;40.07;94965.09;4968486;28;20216;-77
2022/07/02 11:40:54;;;;;;;12.70;8.00;;;;;;;30.49;44.08;94974.03;4968173;28;20332;-76
2022/07/02 11:43:33;;;;;;;17.38;7.38;;;;;;;30.81;44.26;94975.78;4970554;28;20279;-82
2022/07/02 11:46:10;;;;;;;21.42;8.50;;;;;;;30.90;48.29;94977.25;4968576;28;20208;-78
2022/07/02 11:48:49;;;;;;;15.80;8.57;;;;;;;30.87;49.71;94983.28;4967767;28;20212;-78
2022/07/02 11:51:27;;;;;;;22.60;9.07;;;;;;;30.87;57.52;94996.72;4967110;28;20224;-76
2022/07/02 11:54:12;;;;;;;25.70;12.02;;;;;;;30.58;67.38;94990.81;4967032;28;20219;-78
2022/07/02 11:56:47;;;;;;;20.80;10.93;;;;;;;30.29;69.33;94989.09;4965708;28;20201;-77
2022/07/02 11:59:31;;;;;;;20.52;10.40;;;;;;;30.04;72.29;94974.88;4969450;28;20207;-77
2022/07/02 12:02:10;;;;;;;14.50;10.20;;;;;;;29.76;70.96;94968.50;4970219;28;20230;-76
2022/07/02 12:04:49;;;;;;;10.00;8.82;;;;;;;29.53;64.89;94957.38;4966350;28;20216;-75
2022/07/02 12:07:30;;;;;;;10.55;8.65;;;;;;;29.43;61.23;94971.19;4971097;28;20204;-77
2022/07/02 12:10:11;;;;;;;10.15;8.48;;;;;;;29.46;67.38;94967.84;4970739;28;20282;-76
2022/07/02 12:12:56;;;;;;;11.70;9.43;;;;;;;29.26;75.37;94972.09;4970848;28;20719;-77
2022/07/02 12:15:32;;;;;;;12.77;7.97;;;;;;;29.20;61.74;94983.31;4972048;28;20267;-77